Time;durP1;ratioP1;P1;durP2;ratioP2;P2;SDS_P1;SDS_P2;PMS_P1;PMS_P2;Temp;Humidity;BMP_temperature;BMP_pressure;BME280_temperature;BME280_humidity;BME280_pressure;Samples;Min_cycle;Max_cycle;Signal;HPM_P1;HPM_P2
2022/11/29 00:00:29;;;;;;;23.52;15.75;;;;;;;9.10;90.13;100139.44;5010829;28;20393;-76
2022/11/29 00:02:55;;;;;;;21.10;14.37;;;;;;;9.12;90.47;100135.41;5002023;28;20413;-75
2022/11/29 00:05:20;;;;;;;22.27;13.53;;;;;;;9.12;90.32;100143.53;5003480;28;20408;-76
2022/11/29 00:07:45;;;;;;;23.43;13.90;;;;;;;9.11;89.96;100146.50;5005111;28;20817;-76
2022/11/29 00:10:11;;;;;;;18.87;12.73;;;;;;;9.13;90.41;100144.34;4993329;28;20408;-75
2022/11/29 00:12:36;;;;;;;18.87;12.40;;;;;;;9.13;90.31;100138.94;5034139;28;20401;-76
2022/11/29 00:15:02;;;;;;;20.53;13.27;;;;;;;9.14;90.07;100141.41;5000686;28;20405;-76
2022/11/29 00:17:27;;;;;;;18.13;12.47;;;;;;;9.13;90.56;100139.78;4997107;28;20416;-76
2022/11/29 00:19:52;;;;;;;18.43;12.30;;;;;;;9.17;90.25;100142.81;5001955;28;20892;-75
2022/11/29 00:22:18;;;;;;;17.97;11.83;;;;;;;9.17;89.89;100140.09;5004622;28;20498;-75
2022/11/29 00:24:43;;;;;;;18.00;12.03;;;;;;;9.17;89.97;100132.81;4998112;28;20429;-76
2022/11/29 00:27:08;;;;;;;17.90;11.07;;;;;;;9.17;90.25;100137.41;4997996;28;20495;-75
2022/11/29 00:29:34;;;;;;;17.33;11.20;;;;;;;9.20;89.91;100139.63;5000417;28;20776;-76
2022/11/29 00:31:59;;;;;;;17.08;11.57;;;;;;;9.20;90.16;100143.16;5011461;28;20412;-76
2022/11/29 00:34:25;;;;;;;17.27;11.65;;;;;;;9.20;89.99;100136.91;5008410;28;20412;-75
2022/11/29 00:36:50;;;;;;;18.50;11.93;;;;;;;9.18;90.45;100139.06;5000578;28;20764;-76
2022/11/29 00:39:15;;;;;;;18.27;12.47;;;;;;;9.18;90.41;100142.59;5001533;28;20398;-76
2022/11/29 00:41:41;;;;;;;19.13;12.13;;;;;;;9.19;90.34;100135.25;5001990;28;20406;-76
2022/11/29 00:44:07;;;;;;;18.57;13.10;;;;;;;9.21;90.52;100143.97;4998281;28;20416;-76
2022/11/29 00:46:33;;;;;;;18.33;13.20;;;;;;;9.22;89.92;100138.31;4998161;28;20406;-76
2022/11/29 00:48:58;;;;;;;19.13;12.47;;;;;;;9.21;89.93;100149.38;4999917;28;20907;-75
2022/11/29 00:51:23;;;;;;;19.77;13.27;;;;;;;9.20;90.04;100143.16;5007445;28;20418;-76
2022/11/29 00:53:48;;;;;;;27.03;13.90;;;;;;;9.21;90.37;100147.50;5005345;28;20774;-76
2022/11/29 00:56:15;;;;;;;22.37;13.63;;;;;;;9.23;90.19;100147.25;5009309;28;20412;-76
2022/11/29 00:58:42;;;;;;;21.23;13.55;;;;;;;9.25;90.26;100145.94;5010532;28;20408;-76
2022/11/29 01:01:08;;;;;;;20.23;13.32;;;;;;;9.25;90.28;100148.63;5011212;28;20451;-75
2022/11/29 01:03:34;;;;;;;20.88;14.00;;;;;;;9.25;90.25;100145.13;4997555;28;20421;-75
2022/11/29 01:06:06;;;;;;;27.30;13.80;;;;;;;9.24;90.22;100149.72;4994791;28;20724;-76
2022/11/29 01:08:31;;;;;;;22.60;14.38;;;;;;;9.24;90.21;100149.72;4997261;28;20408;-75
2022/11/29 01:11:01;;;;;;;20.80;14.13;;;;;;;9.23;89.78;100153.47;4996320;28;20403;-75
2022/11/29 01:13:27;;;;;;;28.00;15.02;;;;;;;9.23;90.14;100160.75;4994827;28;20921;-76
2022/11/29 01:15:56;;;;;;;20.90;13.53;;;;;;;9.26;90.27;100160.28;5008457;28;20512;-75
2022/11/29 01:18:22;;;;;;;27.38;13.60;;;;;;;9.24;90.53;100165.13;5010920;28;20424;-75
2022/11/29 01:20:59;;;;;;;25.88;13.85;;;;;;;9.24;90.10;100152.41;5006135;28;20403;-75
2022/11/29 01:23:26;;;;;;;20.90;12.48;;;;;;;9.23;90.32;100158.88;4997510;28;20417;-76
2022/11/29 01:26:13;;;;;;;24.55;13.48;;;;;;;9.23;90.37;100158.06;5009998;28;22478;-75
2022/11/29 01:28:39;;;;;;;21.30;12.40;;;;;;;9.22;90.46;100159.94;5029508;28;20410;-76
2022/11/29 01:31:09;;;;;;;23.20;12.88;;;;;;;9.22;90.46;100161.84;4998240;28;20501;-76
2022/11/29 01:33:36;;;;;;;22.87;13.63;;;;;;;9.23;90.18;100158.88;5000623;28;20405;-75
2022/11/29 01:36:02;;;;;;;28.15;13.02;;;;;;;9.23;90.18;100167.00;5000212;28;20454;-75
2022/11/29 01:38:27;;;;;;;23.20;13.13;;;;;;;9.24;90.50;100157.00;5007943;28;20460;-76
2022/11/29 01:41:03;;;;;;;23.77;13.13;;;;;;;9.24;90.37;100160.53;5001725;28;20399;-75
2022/11/29 01:43:28;;;;;;;23.58;12.50;;;;;;;9.24;89.98;100157.00;5002373;28;20414;-75
2022/11/29 01:45:54;;;;;;;26.27;12.35;;;;;;;9.24;90.12;100159.72;5015076;28;20423;-76
2022/11/29 01:48:27;;;;;;;21.00;11.93;;;;;;;9.22;90.08;100162.63;5008006;28;20408;-76
2022/11/29 01:50:54;;;;;;;20.52;12.48;;;;;;;9.21;90.33;100158.31;5012113;28;20428;-76
2022/11/29 01:53:19;;;;;;;19.50;11.15;;;;;;;9.23;90.12;100152.66;5004743;28;20710;-75
2022/11/29 01:55:59;;;;;;;23.27;11.53;;;;;;;9.23;90.44;100155.34;5012954;28;20821;-76
2022/11/29 01:58:25;;;;;;;18.95;10.90;;;;;;;9.22;90.19;100157.22;5003425;28;20837;-76
2022/11/29 02:00:50;;;;;;;21.65;11.35;;;;;;;9.21;90.38;100163.72;5002747;28;20404;-76
2022/11/29 02:03:17;;;;;;;19.20;10.27;;;;;;;9.22;90.52;100156.44;5002627;28;20408;-75
2022/11/29 02:05:51;;;;;;;25.20;11.30;;;;;;;9.23;90.47;100160.75;4997047;28;20406;-76
2022/11/29 02:08:26;;;;;;;17.93;10.00;;;;;;;9.21;90.28;100158.31;4998478;28;20967;-76
2022/11/29 02:10:57;;;;;;;22.42;10.80;;;;;;;9.22;90.51;100161.84;5006393;28;20443;-76
2022/11/29 02:13:36;;;;;;;18.77;10.23;;;;;;;9.23;90.12;100155.34;5001531;28;21023;-75
2022/11/29 02:16:13;;;;;;;19.93;10.23;;;;;;;9.23;90.11;100160.75;5005231;28;20419;-76
2022/11/29 02:18:54;;;;;;;16.92;10.05;;;;;;;9.23;90.67;100158.88;5004349;28;20445;-76
2022/11/29 02:22:01;;;;;;;18.00;10.18;;;;;;;9.23;90.09;100163.47;5008345;28;20416;-75
2022/11/29 02:25:00;;;;;;;21.83;9.32;;;;;;;9.23;90.32;100158.88;5012754;28;20502;-76
2022/11/29 02:27:50;;;;;;;23.27;10.13;;;;;;;9.24;89.98;100160.53;4997275;28;20399;-76
2022/11/29 02:30:19;;;;;;;19.15;8.68;;;;;;;9.25;90.07;100162.16;5002201;28;20412;-76
2022/11/29 02:33:22;;;;;;;19.13;9.55;;;;;;;9.25;90.37;100151.34;5004425;28;20846;-76
2022/11/29 02:36:02;;;;;;;18.38;9.60;;;;;;;9.23;90.43;100156.19;4997634;28;20890;-76
2022/11/29 02:39:15;;;;;;;20.23;10.20;;;;;;;9.25;89.95;100154.03;4999216;28;20427;-77
2022/11/29 02:42:15;;;;;;;21.60;9.90;;;;;;;9.22;90.33;100146.41;4998336;28;20414;-75
2022/11/29 02:45:06;;;;;;;23.30;8.73;;;;;;;9.20;90.16;100158.53;5011672;28;20495;-76
2022/11/29 02:47:50;;;;;;;21.17;9.32;;;;;;;9.20;90.84;100153.97;5004957;28;20492;-75
2022/11/29 02:50:27;;;;;;;20.85;8.38;;;;;;;9.21;90.10;100160.19;5011200;28;20429;-75
2022/11/29 02:53:14;;;;;;;17.83;9.20;;;;;;;9.19;90.67;100152.31;5012043;28;20435;-76
2022/11/29 02:55:54;;;;;;;18.20;8.87;;;;;;;9.22;90.58;100161.84;4996400;28;20472;-76
2022/11/29 02:58:34;;;;;;;17.73;8.37;;;;;;;9.18;90.50;100153.41;4996981;28;20426;-75
2022/11/29 03:01:07;;;;;;;19.75;8.02;;;;;;;9.19;90.44;100151.50;5033221;28;20415;-75
2022/11/29 03:03:45;;;;;;;17.83;8.52;;;;;;;9.19;90.55;100154.19;5007832;28;20467;-75
2022/11/29 03:06:22;;;;;;;20.33;8.48;;;;;;;9.21;90.25;100163.72;5004054;28;20405;-75
2022/11/29 03:08:48;;;;;;;15.75;7.88;;;;;;;9.17;90.29;100162.56;5005386;28;20397;-76
2022/11/29 03:11:31;;;;;;;16.17;7.83;;;;;;;9.18;90.37;100166.09;5004276;28;20825;-75
2022/11/29 03:14:14;;;;;;;17.77;8.33;;;;;;;9.19;90.49;100160.41;5011327;28;20401;-75
2022/11/29 03:16:44;;;;;;;17.75;8.35;;;;;;;9.20;90.15;100172.88;5007351;28;20412;-75
2022/11/29 03:19:39;;;;;;;18.60;8.77;;;;;;;9.23;90.46;100174.28;5013538;28;20403;-76
2022/11/29 03:22:13;;;;;;;24.27;8.65;;;;;;;9.22;89.88;100175.38;5010999;28;20427;-76
2022/11/29 03:24:53;;;;;;;17.88;8.43;;;;;;;9.21;90.25;100185.34;4994620;28;20897;-75
2022/11/29 03:27:46;;;;;;;19.48;8.25;;;;;;;9.21;90.39;100184.53;5032362;28;20929;-76
2022/11/29 03:30:17;;;;;;;16.35;8.32;;;;;;;9.23;89.98;100176.97;5004475;28;20436;-76
2022/11/29 03:33:22;;;;;;;15.50;8.73;;;;;;;9.23;90.32;100174.28;5006673;28;20485;-76
2022/11/29 03:36:16;;;;;;;16.77;8.60;;;;;;;9.22;90.39;100181.56;5000466;28;20443;-76
2022/11/29 03:38:44;;;;;;;17.67;8.20;;;;;;;9.23;90.07;100180.50;4991905;28;20546;-76
2022/11/29 03:41:26;;;;;;;20.73;8.35;;;;;;;9.23;90.34;100182.38;5002882;28;20411;-76
2022/11/29 03:44:21;;;;;;;17.67;8.27;;;;;;;9.23;90.34;100187.78;5010261;28;20910;-76
2022/11/29 03:46:57;;;;;;;14.67;8.00;;;;;;;9.20;90.10;100194.53;5010354;28;20409;-76
2022/11/29 03:49:28;;;;;;;16.92;8.93;;;;;;;9.21;90.49;100198.88;5009798;28;20404;-76
2022/11/29 03:52:06;;;;;;;14.75;8.05;;;;;;;9.21;90.38;100195.34;4993242;28;20788;-75
2022/11/29 03:54:40;;;;;;;18.97;8.63;;;;;;;9.20;90.13;100197.22;4993266;28;20497;-75
2022/11/29 03:57:06;;;;;;;14.88;7.47;;;;;;;9.21;90.60;100204.28;4994934;28;20422;-76
2022/11/29 03:59:46;;;;;;;15.93;8.27;;;;;;;9.22;90.34;100194.28;5004763;28;20401;-75
2022/11/29 04:02:36;;;;;;;20.88;9.00;;;;;;;9.22;90.02;100197.00;5000062;28;20806;-75
2022/11/29 04:05:22;;;;;;;16.45;8.40;;;;;;;9.21;90.65;100200.75;5009681;28;20397;-76
2022/11/29 04:07:56;;;;;;;14.40;8.13;;;;;;;9.21;90.01;100198.88;5001679;28;20412;-76
2022/11/29 04:10:53;;;;;;;20.42;8.02;;;;;;;9.22;90.24;100200.50;5004831;28;20404;-76
2022/11/29 04:13:34;;;;;;;16.50;7.55;;;;;;;9.24;90.05;100203.78;5000035;28;20501;-76
2022/11/29 04:16:01;;;;;;;15.70;8.23;;;;;;;9.21;90.33;100196.16;5004588;28;20398;-76
2022/11/29 04:18:51;;;;;;;16.67;6.88;;;;;;;9.19;90.56;100202.84;4995094;28;20418;-76
2022/11/29 04:21:19;;;;;;;12.50;6.88;;;;;;;9.18;90.77;100203.94;5000654;28;20467;-76
2022/11/29 04:24:01;;;;;;;15.25;7.00;;;;;;;9.19;90.62;100202.84;5000649;28;20414;-76
2022/11/29 04:26:52;;;;;;;11.80;6.78;;;;;;;9.20;90.27;100210.75;4996042;28;20893;-76
2022/11/29 04:29:29;;;;;;;13.65;6.68;;;;;;;9.21;90.36;100212.38;5011721;28;20440;-76
2022/11/29 04:32:03;;;;;;;13.07;6.10;;;;;;;9.23;90.14;100222.94;5006457;28;20428;-76
2022/11/29 04:35:13;;;;;;;13.25;6.65;;;;;;;9.23;90.26;100222.94;5009100;28;20405;-76
2022/11/29 04:38:06;;;;;;;12.90;5.40;;;;;;;9.24;90.34;100228.13;4996622;28;20426;-76
2022/11/29 04:40:54;;;;;;;10.52;5.80;;;;;;;9.21;90.63;100222.38;5004666;28;20411;-76
2022/11/29 04:43:38;;;;;;;12.68;5.15;;;;;;;9.20;90.29;100226.13;4995105;28;20472;-76
2022/11/29 04:46:44;;;;;;;11.87;5.50;;;;;;;9.19;90.76;100221.78;4992868;28;20513;-76
2022/11/29 04:49:12;;;;;;;10.55;5.30;;;;;;;9.22;90.49;100224.03;5009477;28;20446;-76
2022/11/29 04:51:48;;;;;;;7.70;4.57;;;;;;;9.20;90.47;100226.97;4993784;28;20423;-76
2022/11/29 04:54:36;;;;;;;10.85;4.50;;;;;;;9.24;90.47;100230.00;4998140;28;20420;-76
2022/11/29 04:57:13;;;;;;;8.35;4.85;;;;;;;9.23;90.24;100236.47;5003868;28;20416;-76
2022/11/29 05:00:01;;;;;;;8.88;4.75;;;;;;;9.23;90.19;100239.16;5011552;28;20413;-76
2022/11/29 05:02:53;;;;;;;6.70;4.72;;;;;;;9.23;90.36;100240.00;4999686;28;20416;-77
2022/11/29 05:05:46;;;;;;;11.98;5.07;;;;;;;9.25;90.44;100239.78;5011717;28;20407;-76
2022/11/29 05:08:22;;;;;;;7.93;4.95;;;;;;;9.26;90.01;100244.09;5001222;28;20459;-76
2022/11/29 05:11:13;;;;;;;6.82;5.05;;;;;;;9.26;90.05;100244.09;5001695;28;20412;-76
2022/11/29 05:13:52;;;;;;;10.57;4.88;;;;;;;9.25;90.28;100248.69;4998504;28;20427;-76
2022/11/29 05:16:17;;;;;;;11.35;5.25;;;;;;;9.23;90.09;100248.09;5002050;28;20409;-76
2022/11/29 05:18:56;;;;;;;9.93;4.87;;;;;;;9.23;90.35;100258.91;4995375;28;20485;-76
2022/11/29 05:21:59;;;;;;;9.30;4.95;;;;;;;9.23;90.19;100258.09;4997705;28;20416;-76
2022/11/29 05:24:49;;;;;;;6.17;4.53;;;;;;;9.23;90.20;100261.63;5010923;28;20416;-76
2022/11/29 05:27:21;;;;;;;11.02;4.93;;;;;;;9.21;90.25;100266.47;5011331;28;20479;-76
2022/11/29 05:30:01;;;;;;;11.68;5.45;;;;;;;9.22;90.37;100265.38;5004852;28;20443;-76
2022/11/29 05:32:29;;;;;;;7.22;5.25;;;;;;;9.22;90.46;100265.38;4998805;28;20400;-76
2022/11/29 05:35:24;;;;;;;8.40;5.18;;;;;;;9.21;90.12;100261.06;5009723;28;20403;-76
2022/11/29 05:38:11;;;;;;;10.82;5.63;;;;;;;9.20;90.23;100266.69;5005233;28;20428;-76
2022/11/29 05:41:08;;;;;;;10.00;5.85;;;;;;;9.25;90.39;100264.09;4996849;28;20417;-76
2022/11/29 05:43:45;;;;;;;10.65;5.97;;;;;;;9.25;90.08;100264.09;4995218;28;20439;-76
2022/11/29 05:46:32;;;;;;;9.05;5.60;;;;;;;9.25;89.71;100266.81;5004698;28;20412;-76
2022/11/29 05:49:14;;;;;;;9.73;5.38;;;;;;;9.22;90.16;100272.69;4998721;28;20835;-76
2022/11/29 05:51:52;;;;;;;8.57;5.70;;;;;;;9.23;89.99;100268.91;5008429;28;20757;-76
2022/11/29 05:54:35;;;;;;;13.57;6.22;;;;;;;9.24;90.12;100267.84;5009436;28;20439;-76
2022/11/29 05:57:14;;;;;;;9.95;5.95;;;;;;;9.24;90.31;100275.97;5009993;28;20420;-76
2022/11/29 05:59:40;;;;;;;10.38;5.68;;;;;;;9.25;90.14;100274.91;5007102;28;20428;-76
2022/11/29 06:02:24;;;;;;;9.77;6.00;;;;;;;9.28;89.96;100280.66;5010265;28;20856;-76
2022/11/29 06:04:58;;;;;;;8.82;5.65;;;;;;;9.27;90.12;100279.03;5008212;28;20776;-75
2022/11/29 06:07:31;;;;;;;10.13;6.50;;;;;;;9.30;89.96;100285.81;4991673;28;20514;-77
2022/11/29 06:10:10;;;;;;;11.80;6.93;;;;;;;9.29;90.11;100287.69;4993074;28;20417;-77
2022/11/29 06:12:36;;;;;;;9.70;6.53;;;;;;;9.31;90.16;100290.19;4990931;28;21445;-76
2022/11/29 06:15:39;;;;;;;11.68;8.50;;;;;;;9.34;89.81;100295.94;4994221;28;20429;-76
2022/11/29 06:18:21;;;;;;;12.63;8.30;;;;;;;9.33;89.78;100294.28;4989294;28;20432;-76
2022/11/29 06:21:17;;;;;;;11.48;6.97;;;;;;;9.33;89.69;100296.97;4998702;28;20440;-76
2022/11/29 06:24:19;;;;;;;11.52;6.90;;;;;;;9.34;89.60;100303.22;4997934;28;20450;-75
2022/11/29 06:27:03;;;;;;;13.07;7.65;;;;;;;9.29;89.75;100303.94;4993247;28;20490;-76
2022/11/29 06:29:35;;;;;;;13.10;8.45;;;;;;;9.27;90.10;100303.34;4991706;28;20421;-76
2022/11/29 06:32:19;;;;;;;13.23;8.75;;;;;;;9.29;89.92;100305.81;4994527;28;20484;-76
2022/11/29 06:34:58;;;;;;;14.45;7.82;;;;;;;9.29;90.02;100305.81;4992401;28;20421;-76
2022/11/29 06:37:31;;;;;;;13.63;7.10;;;;;;;9.30;89.77;100304.75;4992304;28;20418;-75
2022/11/29 06:39:56;;;;;;;10.70;7.28;;;;;;;9.30;89.63;100302.88;4992372;28;20406;-75
2022/11/29 06:42:22;;;;;;;14.50;8.07;;;;;;;9.32;89.50;100308.03;4992494;28;20773;-76
2022/11/29 06:44:47;;;;;;;24.48;10.85;;;;;;;9.31;89.59;100307.22;4997254;28;20422;-74
2022/11/29 06:47:25;;;;;;;51.47;19.98;;;;;;;9.33;89.75;100309.69;5002760;28;20492;-75
2022/11/29 06:50:12;;;;;;;14.90;8.13;;;;;;;9.33;89.51;100312.38;5007955;28;20436;-75
2022/11/29 06:53:03;;;;;;;13.70;8.45;;;;;;;9.33;89.54;100317.78;4998261;28;20503;-75
2022/11/29 06:55:52;;;;;;;16.58;8.35;;;;;;;9.33;89.82;100318.63;4998726;28;20414;-76
2022/11/29 06:58:39;;;;;;;12.50;7.22;;;;;;;9.32;89.52;100319.66;5001906;28;20912;-75
2022/11/29 07:01:42;;;;;;;16.27;7.55;;;;;;;9.34;89.64;100330.25;5002415;28;20425;-75
2022/11/29 07:04:28;;;;;;;16.98;7.90;;;;;;;9.34;89.54;100322.16;5010719;28;20483;-75
2022/11/29 07:06:54;;;;;;;12.13;8.15;;;;;;;9.34;89.22;100325.69;5005198;28;20806;-75
2022/11/29 07:09:24;;;;;;;15.50;7.90;;;;;;;9.35;89.77;100337.31;5013391;28;20404;-74
2022/11/29 07:11:49;;;;;;;14.77;7.97;;;;;;;9.28;89.87;100331.22;4997658;28;20394;-75
2022/11/29 07:14:15;;;;;;;22.17;10.33;;;;;;;9.32;89.78;100333.19;5011097;28;20494;-75
2022/11/29 07:17:18;;;;;;;34.33;16.60;;;;;;;9.33;89.63;100337.53;4999011;28;20426;-75
2022/11/29 07:20:14;;;;;;;16.27;9.80;;;;;;;9.33;89.58;100342.97;4994508;28;20493;-74
2022/11/29 07:22:51;;;;;;;15.03;8.20;;;;;;;9.35;89.59;100335.41;5002115;28;20798;-74
2022/11/29 07:25:29;;;;;;;15.60;8.73;;;;;;;9.36;89.64;100345.19;5007063;28;20480;-74
2022/11/29 07:28:19;;;;;;;13.20;8.48;;;;;;;9.36;89.80;100347.88;5011166;28;20439;-74
2022/11/29 07:30:55;;;;;;;17.85;9.05;;;;;;;9.37;89.72;100348.72;4997188;28;20497;-74
2022/11/29 07:33:33;;;;;;;13.95;8.43;;;;;;;9.38;89.38;100353.06;5009520;28;20479;-74
2022/11/29 07:36:17;;;;;;;15.83;9.00;;;;;;;9.37;89.54;100352.25;5003069;28;20955;-74
2022/11/29 07:39:02;;;;;;;16.88;8.95;;;;;;;9.39;89.26;100363.63;4994565;28;20502;-74
2022/11/29 07:41:59;;;;;;;15.87;8.20;;;;;;;9.43;89.19;100360.44;5012091;28;20760;-74
2022/11/29 07:44:49;;;;;;;16.42;9.77;;;;;;;9.44;89.45;100362.09;5006790;28;20471;-74
2022/11/29 07:47:14;;;;;;;21.83;11.90;;;;;;;9.43;89.18;100361.28;5008813;28;20402;-74
2022/11/29 07:49:39;;;;;;;31.73;15.97;;;;;;;9.42;89.37;100364.22;4999572;28;20469;-74
2022/11/29 07:52:05;;;;;;;19.45;12.98;;;;;;;9.42;89.36;100366.94;5013048;28;20756;-74
2022/11/29 07:54:30;;;;;;;20.03;11.87;;;;;;;9.43;89.50;100373.97;5011719;28;20428;-74
2022/11/29 07:56:55;;;;;;;20.75;11.00;;;;;;;9.41;89.61;100363.41;5012861;28;20408;-74
2022/11/29 07:59:21;;;;;;;18.00;9.83;;;;;;;9.43;89.39;100368.56;5010905;28;20404;-74
2022/11/29 08:01:46;;;;;;;16.20;10.23;;;;;;;9.42;89.50;100362.31;4999216;28;20394;-75
2022/11/29 08:04:12;;;;;;;18.17;10.43;;;;;;;9.43;89.41;100365.84;5007451;28;20404;-75
2022/11/29 08:06:37;;;;;;;17.00;9.27;;;;;;;9.44;89.56;100371.03;5012779;28;20432;-74
2022/11/29 08:09:03;;;;;;;15.50;9.83;;;;;;;9.45;89.09;100364.53;5012373;28;20884;-75
2022/11/29 08:11:28;;;;;;;16.80;9.87;;;;;;;9.47;88.98;100378.66;5002496;28;20748;-74
2022/11/29 08:13:59;;;;;;;19.30;9.40;;;;;;;9.46;89.28;100379.72;5009655;28;20400;-74
2022/11/29 08:16:24;;;;;;;12.98;9.07;;;;;;;9.46;89.47;100378.91;5000459;28;20401;-74
2022/11/29 08:18:49;;;;;;;13.90;9.53;;;;;;;9.45;89.36;100378.06;4999950;28;21086;-75
2022/11/29 08:21:17;;;;;;;16.23;9.87;;;;;;;9.46;89.04;100376.19;4999126;28;20400;-74
2022/11/29 08:23:47;;;;;;;17.63;11.05;;;;;;;9.47;88.94;100385.97;5006882;28;20426;-74
2022/11/29 08:26:15;;;;;;;17.42;10.88;;;;;;;9.46;89.37;100387.00;5006896;28;20428;-74
2022/11/29 08:28:40;;;;;;;16.10;9.65;;;;;;;9.43;89.05;100393.72;4994617;28;20418;-75
2022/11/29 08:31:09;;;;;;;15.87;9.93;;;;;;;9.43;89.46;100392.91;4996694;28;20410;-74
2022/11/29 08:33:39;;;;;;;17.00;10.18;;;;;;;9.46;89.35;100389.72;5001755;28;20913;-74
2022/11/29 08:36:07;;;;;;;16.25;9.10;;;;;;;9.48;89.45;100401.97;4995806;28;20429;-74
2022/11/29 08:38:32;;;;;;;24.17;11.00;;;;;;;9.50;88.98;100394.41;5009305;28;20436;-74
2022/11/29 08:41:02;;;;;;;16.83;10.77;;;;;;;9.51;88.97;100406.06;4998210;28;20400;-74
2022/11/29 08:43:28;;;;;;;16.42;11.10;;;;;;;9.51;89.13;100406.06;4996804;28;20437;-74
2022/11/29 08:45:54;;;;;;;21.75;11.32;;;;;;;9.50;89.22;100405.25;5001132;28;20413;-75
2022/11/29 08:48:19;;;;;;;21.83;12.57;;;;;;;9.49;89.38;100411.69;5010910;28;20740;-74
2022/11/29 08:50:48;;;;;;;22.40;13.57;;;;;;;9.47;89.46;100411.13;5008536;28;20393;-74
2022/11/29 08:55:58;;;;;;;21.60;12.13;;;;;;;9.52;89.48;100418.50;5008463;28;20769;-74
2022/11/29 08:58:24;;;;;;;20.52;12.98;;;;;;;9.55;89.23;100426.97;5007896;28;20935;-75
2022/11/29 09:00:50;;;;;;;20.27;13.02;;;;;;;9.55;89.12;100424.25;5003698;28;20455;-74
2022/11/29 09:06:07;;;;;;;19.13;12.43;;;;;;;9.58;89.29;100428.41;5007528;28;20414;-75
2022/11/29 09:08:32;;;;;;;18.87;13.10;;;;;;;9.60;89.25;100434.38;4997167;28;20425;-75
2022/11/29 09:10:58;;;;;;;20.50;12.83;;;;;;;9.62;88.86;100433.06;4997069;28;20430;-75
2022/11/29 09:13:23;;;;;;;18.83;14.27;;;;;;;9.65;88.89;100439.91;5001824;28;20417;-75
2022/11/29 09:15:48;;;;;;;21.03;14.00;;;;;;;9.65;88.86;100445.34;5001297;28;20427;-74
2022/11/29 09:18:22;;;;;;;21.43;12.17;;;;;;;9.66;88.72;100442.38;5002618;28;20440;-74
2022/11/29 09:21:15;;;;;;;16.25;11.90;;;;;;;9.67;88.73;100448.59;5003749;28;20411;-75
2022/11/29 09:23:58;;;;;;;17.75;11.98;;;;;;;9.68;88.92;100445.66;5000945;28;20493;-74
2022/11/29 09:26:26;;;;;;;20.05;12.38;;;;;;;9.68;88.95;100452.97;5000520;28;20410;-73
2022/11/29 09:28:51;;;;;;;23.63;12.75;;;;;;;9.68;88.73;100447.56;4995515;28;20854;-74
2022/11/29 09:31:16;;;;;;;18.52;12.32;;;;;;;9.67;89.06;100454.03;5003755;28;20412;-74
2022/11/29 09:33:42;;;;;;;20.33;12.20;;;;;;;9.67;89.03;100462.97;4997123;28;20411;-74
2022/11/29 09:36:09;;;;;;;22.60;12.40;;;;;;;9.67;88.80;100448.59;5002319;28;20886;-74
2022/11/29 09:38:35;;;;;;;19.25;12.93;;;;;;;9.68;89.13;100455.66;5000029;28;20426;-74
2022/11/29 09:41:39;;;;;;;17.02;11.75;;;;;;;9.71;89.13;100460.59;4995012;28;20419;-74
2022/11/29 09:44:21;;;;;;;17.00;11.63;;;;;;;9.69;89.10;100468.13;5004321;28;20390;-74
2022/11/29 09:47:07;;;;;;;18.90;11.85;;;;;;;9.69;88.73;100468.94;4995730;28;20469;-74
2022/11/29 09:49:53;;;;;;;18.27;12.07;;;;;;;9.72;88.89;100468.47;4998495;28;20404;-74
2022/11/29 09:52:46;;;;;;;19.42;11.73;;;;;;;9.75;88.96;100472.56;4997341;28;20422;-74
2022/11/29 09:55:14;;;;;;;22.10;11.98;;;;;;;9.76;88.95;100460.69;5006262;28;20420;-74
2022/11/29 09:57:42;;;;;;;21.52;11.60;;;;;;;9.77;88.90;100475.88;5008645;28;20503;-74
2022/11/29 10:00:16;;;;;;;17.17;11.00;;;;;;;9.78;88.78;100472.91;5008547;28;20968;-74
2022/11/29 10:02:48;;;;;;;17.60;11.48;;;;;;;9.79;88.43;100477.28;5005678;28;20703;-74
2022/11/29 10:05:24;;;;;;;18.58;12.10;;;;;;;9.77;88.80;100478.59;5000895;28;20431;-74
2022/11/29 10:08:02;;;;;;;16.88;11.18;;;;;;;9.78;88.67;100475.63;4998099;28;20497;-74
2022/11/29 10:10:39;;;;;;;19.17;11.57;;;;;;;9.80;88.86;100473.53;4998875;28;20391;-74
2022/11/29 10:13:20;;;;;;;13.77;10.70;;;;;;;9.82;88.62;100484.09;5007082;28;20407;-74
2022/11/29 10:15:49;;;;;;;16.07;11.20;;;;;;;9.86;88.43;100480.69;5001808;28;20406;-74
2022/11/29 10:18:22;;;;;;;17.15;11.05;;;;;;;9.93;88.33;100477.00;5001423;28;20414;-74
2022/11/29 10:20:50;;;;;;;14.68;10.60;;;;;;;9.97;88.20;100473.59;4999198;28;20421;-74
2022/11/29 10:23:24;;;;;;;16.03;11.40;;;;;;;10.04;88.14;100479.69;4997640;28;20478;-74
2022/11/29 10:25:52;;;;;;;16.35;12.70;;;;;;;10.10;87.93;100480.59;5010542;28;20409;-74
2022/11/29 10:28:21;;;;;;;15.57;12.67;;;;;;;10.15;87.58;100478.84;5001485;28;20457;-74
2022/11/29 10:30:47;;;;;;;20.35;12.23;;;;;;;10.23;87.49;100469.50;5012179;28;20491;-74
2022/11/29 10:33:25;;;;;;;19.85;11.63;;;;;;;10.29;87.37;100472.06;5008151;28;20404;-74
2022/11/29 10:35:55;;;;;;;16.00;10.45;;;;;;;10.32;87.26;100478.88;4997923;28;20402;-74
2022/11/29 10:38:22;;;;;;;17.17;10.48;;;;;;;10.32;87.11;100481.59;5005928;28;20423;-74
2022/11/29 10:40:57;;;;;;;14.73;10.43;;;;;;;10.34;86.85;100476.78;5009532;28;20413;-74
2022/11/29 10:43:24;;;;;;;12.57;10.20;;;;;;;10.32;86.91;100477.00;5006952;28;20748;-74
2022/11/29 10:45:54;;;;;;;15.77;10.23;;;;;;;10.33;87.09;100483.25;5005237;28;20432;-73
2022/11/29 10:48:24;;;;;;;13.73;9.73;;;;;;;10.34;87.01;100474.06;5007926;28;20410;-74
2022/11/29 10:50:51;;;;;;;14.80;9.88;;;;;;;10.35;86.81;100472.97;5003617;28;21468;-74
2022/11/29 10:53:26;;;;;;;16.10;10.20;;;;;;;10.32;87.00;100476.19;5012054;28;20954;-74
2022/11/29 10:56:00;;;;;;;13.80;9.93;;;;;;;10.29;86.90;100474.78;5006709;28;20407;-73
2022/11/29 10:58:28;;;;;;;16.23;10.32;;;;;;;10.31;86.82;100469.94;5007940;28;20463;-73
2022/11/29 11:00:57;;;;;;;18.15;11.88;;;;;;;10.31;86.78;100467.22;5008257;28;20411;-73
2022/11/29 11:03:41;;;;;;;14.30;9.60;;;;;;;10.30;86.79;100473.72;5006010;28;20471;-74
2022/11/29 11:06:42;;;;;;;14.10;9.88;;;;;;;10.30;86.98;100467.50;5002415;28;20422;-73
2022/11/29 11:09:32;;;;;;;16.08;10.30;;;;;;;10.27;86.82;100468.78;5006025;28;20406;-74
2022/11/29 11:12:00;;;;;;;13.70;10.48;;;;;;;10.26;86.97;100471.75;5003966;28;20397;-74
2022/11/29 11:14:28;;;;;;;14.85;10.98;;;;;;;10.27;86.95;100466.06;5004249;28;20945;-74
2022/11/29 11:16:54;;;;;;;17.95;11.90;;;;;;;10.29;86.99;100472.06;5000816;28;20414;-74
2022/11/29 11:19:32;;;;;;;16.70;10.82;;;;;;;10.35;86.55;100464.84;5001291;28;20932;-74
2022/11/29 11:22:01;;;;;;;16.53;11.60;;;;;;;10.37;86.57;100471.66;5000542;28;20477;-74
2022/11/29 11:24:30;;;;;;;17.38;11.20;;;;;;;10.40;86.61;100470.38;5002501;28;20464;-74
2022/11/29 11:26:56;;;;;;;18.13;11.80;;;;;;;10.40;86.67;100465.78;5005803;28;20417;-74
2022/11/29 11:29:26;;;;;;;16.02;11.50;;;;;;;10.40;86.65;100473.91;4999020;28;20488;-74
2022/11/29 11:31:55;;;;;;;19.20;12.80;;;;;;;10.38;86.60;100478.75;4999214;28;20757;-74
2022/11/29 11:34:30;;;;;;;16.05;11.95;;;;;;;10.35;86.38;100473.81;4999184;28;20413;-74
2022/11/29 11:37:14;;;;;;;17.98;12.90;;;;;;;10.35;86.55;100476.53;5005843;28;20424;-74
2022/11/29 11:39:40;;;;;;;18.85;12.48;;;;;;;10.34;86.94;100474.88;5006575;28;20420;-74
2022/11/29 11:44:55;;;;;;;14.23;10.40;;;;;;;10.33;86.56;100475.13;5012060;28;20519;-74
2022/11/29 11:47:24;;;;;;;20.03;10.30;;;;;;;10.30;86.47;100481.84;5006366;28;20418;-74
2022/11/29 11:50:06;;;;;;;16.25;11.18;;;;;;;10.26;86.47;100483.41;4997827;28;20406;-74
2022/11/29 11:52:38;;;;;;;15.10;11.40;;;;;;;10.23;86.49;100480.34;5004968;28;20484;-74
2022/11/29 11:55:28;;;;;;;18.27;11.68;;;;;;;10.23;86.77;100477.66;5009911;28;20459;-74
2022/11/29 11:58:01;;;;;;;19.35;12.13;;;;;;;10.22;86.90;100487.66;5008497;28;20445;-74
2022/11/29 12:01:12;;;;;;;17.77;11.93;;;;;;;10.23;86.74;100485.78;5007851;28;20412;-74
2022/11/29 12:03:55;;;;;;;16.75;11.55;;;;;;;10.23;86.71;100493.88;5001437;28;20433;-73
2022/11/29 12:06:29;;;;;;;20.60;12.90;;;;;;;10.23;86.78;100491.19;5005406;28;20403;-74